Time;durP1;ratioP1;P1;durP2;ratioP2;P2;SDS_P1;SDS_P2;PMS_P1;PMS_P2;Temp;Humidity;BMP_temperature;BMP_pressure;BME280_temperature;BME280_humidity;BME280_pressure;Samples;Min_cycle;Max_cycle;Signal;HPM_P1;HPM_P2
2021/05/06 00:00:11;;;;;;;1.70;1.60;;;6.20;99.90;;;;;;5074698;28;20166;-47
2021/05/06 00:02:30;;;;;;;2.47;1.93;;;6.30;99.90;;;;;;5060268;28;20197;-46
2021/05/06 00:05:19;;;;;;;1.90;1.70;;;6.20;99.90;;;;;;5073138;28;20669;-50
2021/05/06 00:10:50;;;;;;;1.63;1.53;;;6.30;99.90;;;;;;5073848;28;20162;-45
2021/05/06 00:32:09;;;;;;;2.87;2.07;;;6.70;99.90;;;;;;5077712;28;20255;-46
2021/05/06 00:34:35;;;;;;;2.83;1.73;;;6.70;99.90;;;;;;5077925;28;20632;-46
2021/05/06 00:37:01;;;;;;;1.70;1.47;;;6.70;99.90;;;;;;5077019;28;20237;-49
2021/05/06 00:40:11;;;;;;;2.60;1.90;;;6.70;99.90;;;;;;5077501;28;20255;-52
2021/05/06 00:59:10;;;;;;;2.40;1.90;;;6.50;99.90;;;;;;5077299;28;20169;-49
2021/05/06 01:06:51;;;;;;;2.63;2.00;;;6.50;99.90;;;;;;5077187;28;20328;-48
2021/05/06 01:09:19;;;;;;;2.23;2.03;;;6.50;99.90;;;;;;5076923;28;20162;-50
2021/05/06 01:11:58;;;;;;;2.53;1.97;;;6.40;99.90;;;;;;5076985;28;20244;-48
2021/05/06 01:14:24;;;;;;;3.53;2.20;;;6.40;99.90;;;;;;5076740;28;20182;-44
2021/05/06 01:16:50;;;;;;;2.80;1.83;;;6.50;99.90;;;;;;5076353;28;20206;-49
2021/05/06 01:19:15;;;;;;;2.00;1.80;;;6.60;99.90;;;;;;5076929;28;20171;-49
2021/05/06 01:21:41;;;;;;;2.40;2.00;;;6.60;99.90;;;;;;5076417;28;20560;-49
2021/05/06 01:24:07;;;;;;;2.77;2.10;;;6.60;99.90;;;;;;5076551;28;20745;-49
2021/05/06 01:27:01;;;;;;;2.40;1.80;;;6.60;99.90;;;;;;5076675;28;20194;-46
2021/05/06 01:29:25;;;;;;;3.67;2.20;;;6.60;99.90;;;;;;5075305;28;20524;-49
2021/05/06 01:32:21;;;;;;;2.23;1.80;;;6.60;99.90;;;;;;5076479;28;20183;-49
2021/05/06 01:34:37;;;;;;;2.47;2.00;;;6.50;99.90;;;;;;5075970;28;20212;-46
2021/05/06 01:37:17;;;;;;;2.77;1.60;;;6.40;99.90;;;;;;5075979;28;20635;-51
2021/05/06 01:40:04;;;;;;;1.80;1.70;;;6.40;99.90;;;;;;5076618;28;20205;-45
2021/05/06 01:42:38;;;;;;;1.67;1.57;;;6.40;99.90;;;;;;5076488;28;20202;-46
2021/05/06 01:50:29;;;;;;;2.30;2.10;;;6.60;99.90;;;;;;5076855;28;20174;-50
2021/05/06 01:59:44;;;;;;;1.63;1.53;;;6.80;99.90;;;;;;5076630;28;20264;-50
2021/05/06 02:01:31;;;;;;;3.33;2.13;;;6.70;99.90;;;;;;5053897;28;20577;-46
2021/05/06 02:03:57;;;;;;;1.93;1.83;;;6.60;99.90;;;;;;5076356;28;20610;-47
2021/05/06 02:06:22;;;;;;;2.37;1.90;;;6.70;99.90;;;;;;5076318;28;20194;-51
2021/05/06 02:08:48;;;;;;;2.60;2.20;;;6.80;99.90;;;;;;5075492;28;20171;-50
2021/05/06 02:11:14;;;;;;;1.80;1.70;;;6.70;99.90;;;;;;5075793;28;20170;-49
2021/05/06 02:13:40;;;;;;;1.50;1.40;;;6.80;99.90;;;;;;5076076;28;20264;-49
2021/05/06 02:16:15;;;;;;;2.37;1.70;;;6.80;99.90;;;;;;5075506;28;20263;-50
2021/05/06 02:18:40;;;;;;;2.30;1.90;;;6.90;99.90;;;;;;5075449;28;20518;-50
2021/05/06 02:21:08;;;;;;;1.93;1.70;;;7.00;99.90;;;;;;5075194;28;20170;-52
2021/05/06 02:23:34;;;;;;;2.63;1.93;;;7.10;99.90;;;;;;5076078;28;20194;-50
2021/05/06 02:25:59;;;;;;;2.77;2.10;;;7.20;99.90;;;;;;5075310;28;20212;-46
2021/05/06 02:28:25;;;;;;;1.97;1.70;;;7.20;99.90;;;;;;5075913;28;20174;-46
2021/05/06 02:30:50;;;;;;;3.40;2.03;;;7.10;99.90;;;;;;5057725;28;20175;-51
2021/05/06 02:33:16;;;;;;;1.90;1.80;;;7.20;99.90;;;;;;5074989;28;20198;-49
2021/05/06 02:35:41;;;;;;;3.00;2.07;;;7.20;99.90;;;;;;5074986;28;20668;-46
2021/05/06 02:38:07;;;;;;;3.60;2.10;;;7.20;99.90;;;;;;5075278;28;20235;-46
2021/05/06 02:40:34;;;;;;;2.70;2.00;;;7.20;99.90;;;;;;5074617;28;20259;-57
2021/05/06 02:43:00;;;;;;;2.27;1.90;;;7.20;99.90;;;;;;5075189;28;20686;-52
2021/05/06 02:45:26;;;;;;;3.50;1.90;;;7.20;99.90;;;;;;5075368;28;20288;-51
2021/05/06 02:47:52;;;;;;;2.30;2.10;;;7.20;99.90;;;;;;5075380;28;20288;-50
2021/05/06 02:50:21;;;;;;;2.20;2.00;;;7.20;99.90;;;;;;5075032;28;20259;-52
2021/05/06 02:55:20;;;;;;;3.37;2.33;;;7.00;99.90;;;;;;5075183;28;20201;-49
2021/05/06 03:02:57;;;;;;;2.87;1.87;;;6.80;99.90;;;;;;5074781;28;20177;-46
2021/05/06 03:05:26;;;;;;;2.20;2.00;;;6.80;99.90;;;;;;5074833;28;20265;-46
2021/05/06 03:08:02;;;;;;;2.27;1.70;;;6.90;99.90;;;;;;5074575;28;20285;-51
2021/05/06 03:24:00;;;;;;;4.20;3.53;;;7.30;99.90;;;;;;5074657;28;20158;-53
2021/05/06 03:26:27;;;;;;;3.73;3.37;;;7.20;99.90;;;;;;5074853;28;20198;-46
2021/05/06 03:29:03;;;;;;;3.97;3.37;;;7.10;99.90;;;;;;5074428;28;20174;-52
2021/05/06 03:42:26;;;;;;;2.63;2.43;;;7.30;99.90;;;;;;5073983;28;20178;-50
2021/05/06 04:37:32;;;;;;;3.17;2.17;;;6.90;99.90;;;;;;5053498;28;20261;-45
2021/05/06 04:40:03;;;;;;;2.50;2.30;;;6.90;99.90;;;;;;5053554;28;20175;-44
2021/05/06 04:45:22;;;;;;;3.37;2.20;;;6.80;99.90;;;;;;5053201;28;20171;-45
2021/05/06 04:55:54;;;;;;;2.63;2.20;;;7.10;99.90;;;;;;5051969;28;20218;-49
2021/05/06 05:06:26;;;;;;;2.70;2.00;;;7.30;99.90;;;;;;5074490;28;20217;-54
2021/05/06 05:09:02;;;;;;;3.00;1.70;;;7.50;99.90;;;;;;5073931;28;20275;-44
2021/05/06 05:11:45;;;;;;;2.63;1.67;;;7.60;99.90;;;;;;5072023;28;20213;-51
2021/05/06 05:14:29;;;;;;;2.83;2.10;;;7.60;99.90;;;;;;5075700;28;20507;-46
2021/05/06 05:19:46;;;;;;;2.40;2.10;;;7.80;99.90;;;;;;5077621;28;20308;-46
2021/05/06 05:25:05;;;;;;;3.37;1.80;;;7.90;99.90;;;;;;5075930;28;20263;-50
2021/05/06 05:27:31;;;;;;;1.87;1.77;;;7.90;99.90;;;;;;5088387;28;20264;-48
2021/05/06 05:29:57;;;;;;;2.57;2.30;;;7.80;99.90;;;;;;5073452;28;20275;-51
2021/05/06 05:32:22;;;;;;;3.57;2.33;;;7.80;99.90;;;;;;5066615;28;20191;-45
2021/05/06 05:35:00;;;;;;;2.23;2.03;;;7.80;99.90;;;;;;5056188;28;20179;-51
2021/05/06 05:37:30;;;;;;;3.17;2.20;;;7.80;99.90;;;;;;5056941;28;20563;-51
2021/05/06 05:42:53;;;;;;;2.83;2.40;;;7.60;99.90;;;;;;5070644;28;20661;-48
2021/05/06 05:54:33;;;;;;;2.63;2.33;;;7.80;99.90;;;;;;5076635;28;20170;-48
2021/05/06 05:56:28;;;;;;;2.87;2.40;;;7.90;99.90;;;;;;5064663;28;20230;-45
2021/05/06 05:58:54;;;;;;;5.20;2.60;;;7.90;99.90;;;;;;5038039;28;20175;-51
2021/05/06 06:01:20;;;;;;;3.50;2.80;;;7.90;99.90;;;;;;5054745;28;20241;-47
2021/05/06 06:03:46;;;;;;;4.13;2.90;;;7.90;99.90;;;;;;5070086;28;20171;-45
2021/05/06 06:06:11;;;;;;;3.53;2.50;;;7.90;99.90;;;;;;5068989;28;20226;-49
2021/05/06 06:08:37;;;;;;;3.27;2.40;;;8.00;99.90;;;;;;5054991;28;20175;-46
2021/05/06 06:11:06;;;;;;;6.00;2.90;;;8.00;99.90;;;;;;5055999;28;20211;-43
2021/05/06 06:13:32;;;;;;;3.97;2.50;;;7.90;99.90;;;;;;5056189;28;20175;-53
2021/05/06 06:16:11;;;;;;;2.17;1.97;;;7.80;99.90;;;;;;5053413;28;20218;-44
2021/05/06 06:23:40;;;;;;;2.47;2.10;;;7.90;99.90;;;;;;5055107;28;20591;-43
2021/05/06 06:26:06;;;;;;;2.37;2.13;;;8.00;99.90;;;;;;5055755;28;20206;-48
2021/05/06 06:28:40;;;;;;;3.10;2.20;;;8.00;99.90;;;;;;5037903;28;20175;-43
2021/05/06 06:31:12;;;;;;;5.73;2.50;;;8.10;99.90;;;;;;5056062;28;20168;-48
2021/05/06 06:33:38;;;;;;;2.70;1.80;;;8.30;99.90;;;;;;5055212;28;20600;-48
2021/05/06 06:36:04;;;;;;;3.43;2.20;;;8.40;99.90;;;;;;5054979;28;20207;-46
2021/05/06 06:38:29;;;;;;;3.80;2.20;;;8.60;99.90;;;;;;5055370;28;20662;-49
2021/05/06 06:40:55;;;;;;;3.20;2.23;;;8.70;99.90;;;;;;5055575;28;20167;-50
2021/05/06 06:43:20;;;;;;;3.17;2.10;;;8.80;99.90;;;;;;5055566;28;20513;-51
2021/05/06 06:45:46;;;;;;;3.33;1.90;;;8.90;99.90;;;;;;5055120;28;20639;-43
2021/05/06 06:48:13;;;;;;;3.20;2.40;;;9.00;99.90;;;;;;5055993;28;20202;-46
2021/05/06 06:50:39;;;;;;;4.47;2.37;;;8.80;99.90;;;;;;5054920;28;20217;-48
2021/05/06 06:53:05;;;;;;;2.83;2.00;;;8.80;99.90;;;;;;5055162;28;20182;-52
2021/05/06 06:55:30;;;;;;;3.63;2.07;;;8.90;99.90;;;;;;5055267;28;20199;-51
2021/05/06 06:58:11;;;;;;;5.03;2.20;;;9.00;99.90;;;;;;5054581;28;20175;-49
2021/05/06 07:00:37;;;;;;;4.00;2.47;;;9.20;99.90;;;;;;5055299;28;20186;-45
2021/05/06 07:03:03;;;;;;;3.60;2.20;;;9.30;99.90;;;;;;5054590;28;20190;-44
2021/05/06 07:05:28;;;;;;;4.27;2.00;;;9.30;99.90;;;;;;5055493;28;20232;-46
2021/05/06 07:08:28;;;;;;;2.80;2.10;;;9.40;99.90;;;;;;5054677;28;20287;-51
2021/05/06 07:10:56;;;;;;;3.80;1.87;;;9.50;99.90;;;;;;5054567;28;20190;-43
2021/05/06 07:13:23;;;;;;;2.07;1.80;;;9.50;99.90;;;;;;5054574;28;20205;-43
2021/05/06 07:15:54;;;;;;;3.93;2.10;;;9.70;99.90;;;;;;5054181;28;20670;-48
2021/05/06 07:18:20;;;;;;;3.50;1.90;;;9.70;99.90;;;;;;5054753;28;20523;-44
2021/05/06 07:20:47;;;;;;;3.23;1.80;;;9.60;99.90;;;;;;5054850;28;20601;-44
2021/05/06 07:23:16;;;;;;;3.37;1.90;;;9.50;99.90;;;;;;5054860;28;20185;-49
2021/05/06 07:25:43;;;;;;;4.37;1.67;;;9.40;99.90;;;;;;5054211;28;20558;-45
2021/05/06 07:28:16;;;;;;;2.80;1.70;;;9.40;99.90;;;;;;5054303;28;20183;-44
2021/05/06 07:30:43;;;;;;;3.97;1.73;;;9.40;99.90;;;;;;5054571;28;20175;-45
2021/05/06 07:33:10;;;;;;;2.83;2.00;;;9.40;99.90;;;;;;5053923;28;20175;-44
2021/05/06 07:35:36;;;;;;;2.33;1.53;;;9.40;99.90;;;;;;5054645;28;20294;-51
2021/05/06 07:38:02;;;;;;;3.57;1.97;;;9.50;99.90;;;;;;5054138;28;20187;-50
2021/05/06 07:40:28;;;;;;;2.70;1.97;;;9.60;99.90;;;;;;5054070;28;20225;-44
2021/05/06 07:42:53;;;;;;;6.70;2.00;;;9.50;99.90;;;;;;5053951;28;20179;-44
2021/05/06 07:45:20;;;;;;;3.57;1.67;;;9.40;99.90;;;;;;5054203;28;20221;-51
2021/05/06 07:47:46;;;;;;;2.67;1.73;;;9.40;99.90;;;;;;5054273;28;20195;-50
2021/05/06 07:50:12;;;;;;;1.90;1.70;;;9.40;99.90;;;;;;5054586;28;20623;-51
2021/05/06 07:52:41;;;;;;;4.40;1.53;;;9.50;99.90;;;;;;5053860;28;20171;-49
2021/05/06 07:55:07;;;;;;;1.90;1.60;;;9.70;99.90;;;;;;5053638;28;20264;-44
2021/05/06 07:57:32;;;;;;;3.97;2.00;;;9.80;99.90;;;;;;5053786;28;20332;-43
2021/05/06 07:59:58;;;;;;;5.03;2.20;;;9.90;99.90;;;;;;5053809;28;20629;-45
2021/05/06 08:02:24;;;;;;;2.40;1.80;;;10.00;99.90;;;;;;5054118;28;20171;-47
2021/05/06 08:04:50;;;;;;;3.87;2.07;;;10.00;99.90;;;;;;5054342;28;20171;-50
2021/05/06 08:07:15;;;;;;;3.30;2.10;;;10.00;99.90;;;;;;5053852;28;20543;-48
2021/05/06 08:09:41;;;;;;;4.23;2.13;;;10.00;99.90;;;;;;5053670;28;20514;-51
2021/05/06 08:12:07;;;;;;;3.63;1.90;;;10.00;99.90;;;;;;5053392;28;20179;-43
2021/05/06 08:14:32;;;;;;;1.83;1.60;;;10.10;99.90;;;;;;5053970;28;20189;-50
2021/05/06 08:16:58;;;;;;;4.10;1.80;;;10.20;99.90;;;;;;5053474;28;20232;-49
2021/05/06 08:19:24;;;;;;;2.97;1.70;;;10.30;99.90;;;;;;5054277;28;20622;-43
2021/05/06 08:21:49;;;;;;;2.47;1.77;;;10.50;99.90;;;;;;5053475;28;20175;-48
2021/05/06 08:24:15;;;;;;;3.67;1.97;;;10.80;99.90;;;;;;5053784;28;20183;-51
2021/05/06 08:26:41;;;;;;;2.33;1.77;;;11.10;99.90;;;;;;5053900;28;20202;-49
2021/05/06 08:29:06;;;;;;;5.13;2.17;;;11.30;99.90;;;;;;5054389;28;20183;-48
2021/05/06 08:31:32;;;;;;;3.50;1.83;;;11.20;99.90;;;;;;5053589;28;20184;-44
2021/05/06 08:33:58;;;;;;;3.20;1.70;;;11.20;99.90;;;;;;5053445;28;20175;-51
2021/05/06 08:36:24;;;;;;;2.50;1.60;;;11.10;99.90;;;;;;5054147;28;20211;-49
2021/05/06 08:38:51;;;;;;;3.60;1.70;;;11.10;99.90;;;;;;5053672;28;20543;-45
2021/05/06 08:41:18;;;;;;;3.03;1.67;;;11.20;99.90;;;;;;5057556;28;20179;-48
2021/05/06 08:43:49;;;;;;;4.03;1.90;;;11.10;99.90;;;;;;5064132;28;20229;-50
2021/05/06 08:46:16;;;;;;;2.83;1.63;;;11.00;99.90;;;;;;5077756;28;20217;-55
2021/05/06 08:48:43;;;;;;;2.93;1.90;;;11.10;99.90;;;;;;5077916;28;20182;-52
2021/05/06 08:51:09;;;;;;;1.93;1.77;;;11.10;99.90;;;;;;5077113;28;20178;-50
2021/05/06 08:53:37;;;;;;;2.57;1.60;;;11.10;99.90;;;;;;5077444;28;20261;-52
2021/05/06 08:56:02;;;;;;;2.10;1.53;;;11.20;99.90;;;;;;5077047;28;20218;-53
2021/05/06 08:58:28;;;;;;;3.47;1.80;;;11.40;99.90;;;;;;5077464;28;20175;-45
2021/05/06 09:00:53;;;;;;;2.13;1.70;;;11.50;99.90;;;;;;5077456;28;20236;-46
2021/05/06 09:03:19;;;;;;;2.37;1.67;;;11.80;99.90;;;;;;5077813;28;20166;-46
2021/05/06 09:06:06;;;;;;;2.83;1.70;;;11.90;99.90;;;;;;5077118;28;20178;-43
2021/05/06 09:08:40;;;;;;;5.77;1.87;;;11.90;99.90;;;;;;5077092;28;20181;-45
2021/05/06 09:11:06;;;;;;;2.90;1.60;;;11.90;99.90;;;;;;5076907;28;20174;-43
2021/05/06 09:13:32;;;;;;;4.70;1.90;;;12.00;99.90;;;;;;5077038;28;20270;-43
2021/05/06 09:15:58;;;;;;;2.87;1.50;;;12.20;99.90;;;;;;5077172;28;20214;-49
2021/05/06 09:18:39;;;;;;;2.40;1.67;;;12.20;99.90;;;;;;5076843;28;20662;-43
2021/05/06 09:21:08;;;;;;;2.80;1.70;;;12.10;99.90;;;;;;5077039;28;20194;-48
2021/05/06 09:23:36;;;;;;;2.60;1.80;;;12.10;99.90;;;;;;5077062;28;20299;-48
2021/05/06 09:26:06;;;;;;;3.00;1.70;;;12.20;99.90;;;;;;5076379;28;20202;-45
2021/05/06 09:28:34;;;;;;;3.63;1.93;;;12.30;99.90;;;;;;5077197;28;20232;-43
2021/05/06 09:31:04;;;;;;;3.13;1.90;;;12.60;99.90;;;;;;5076182;28;20591;-49
2021/05/06 09:33:31;;;;;;;3.47;1.90;;;12.70;99.90;;;;;;5076934;28;20236;-45
2021/05/06 09:35:58;;;;;;;3.93;1.80;;;12.80;99.90;;;;;;5076752;28;20268;-48
2021/05/06 09:38:25;;;;;;;2.97;2.03;;;13.00;99.90;;;;;;5076067;28;20667;-45
2021/05/06 09:40:51;;;;;;;1.93;1.67;;;13.00;99.90;;;;;;5076809;28;20647;-44
2021/05/06 09:43:30;;;;;;;4.83;2.07;;;12.80;99.90;;;;;;5076274;28;20531;-49
2021/05/06 09:45:56;;;;;;;4.60;2.27;;;12.70;99.90;;;;;;5076597;28;20203;-51
2021/05/06 09:48:23;;;;;;;4.97;2.20;;;12.60;99.90;;;;;;5076166;28;20201;-48
2021/05/06 09:51:04;;;;;;;1.90;1.60;;;12.60;99.90;;;;;;5075422;28;20224;-47
2021/05/06 09:53:32;;;;;;;2.80;1.73;;;12.70;99.90;;;;;;5076206;28;20324;-43
2021/05/06 09:56:00;;;;;;;3.23;1.80;;;12.90;99.90;;;;;;5076021;28;20275;-47
2021/05/06 09:58:31;;;;;;;3.23;1.80;;;13.10;99.90;;;;;;5076250;28;20290;-53
2021/05/06 10:00:58;;;;;;;5.67;1.90;;;13.20;99.90;;;;;;5075830;28;20179;-48
2021/05/06 10:03:33;;;;;;;2.80;1.90;;;13.10;99.90;;;;;;5075819;28;20166;-53
2021/05/06 10:06:11;;;;;;;4.47;2.33;;;12.80;99.90;;;;;;5076385;28;20185;-48
2021/05/06 10:08:37;;;;;;;3.93;2.03;;;12.60;99.90;;;;;;5076360;28;20182;-44
2021/05/06 10:11:11;;;;;;;3.33;1.70;;;12.50;99.90;;;;;;5075840;28;20198;-43
2021/05/06 10:13:39;;;;;;;5.10;2.20;;;12.50;99.90;;;;;;5076085;28;20666;-43
2021/05/06 10:16:06;;;;;;;3.43;1.87;;;12.40;99.90;;;;;;5075566;28;20214;-52
2021/05/06 10:18:32;;;;;;;3.87;1.70;;;12.30;99.90;;;;;;5075753;28;20205;-43
2021/05/06 10:20:59;;;;;;;3.10;1.90;;;12.30;99.90;;;;;;5075546;28;20174;-49
2021/05/06 10:23:26;;;;;;;3.80;1.77;;;12.20;99.90;;;;;;5075876;28;20167;-48
2021/05/06 10:25:54;;;;;;;3.70;1.70;;;12.20;99.90;;;;;;5075129;28;20670;-47
2021/05/06 10:28:22;;;;;;;2.53;1.60;;;12.20;99.90;;;;;;5075848;28;20561;-52
2021/05/06 10:30:48;;;;;;;2.87;1.70;;;12.30;99.90;;;;;;5075340;28;20710;-45
2021/05/06 10:33:15;;;;;;;6.33;1.80;;;12.20;99.90;;;;;;5075113;28;20206;-50
2021/05/06 10:35:41;;;;;;;2.73;1.90;;;12.20;99.90;;;;;;5075326;28;20297;-45
2021/05/06 10:38:06;;;;;;;3.47;1.80;;;12.10;99.90;;;;;;5075013;28;20296;-49
2021/05/06 10:40:35;;;;;;;3.53;2.10;;;12.10;99.90;;;;;;5075066;28;20771;-44
2021/05/06 10:43:30;;;;;;;2.60;1.77;;;12.30;99.90;;;;;;5075184;28;20178;-47
2021/05/06 10:46:01;;;;;;;4.37;1.90;;;12.60;99.90;;;;;;5074858;28;20546;-44
2021/05/06 10:49:02;;;;;;;3.53;2.17;;;12.80;99.90;;;;;;5074916;28;20576;-45
2021/05/06 10:51:56;;;;;;;3.47;1.60;;;12.90;99.90;;;;;;5075309;28;20210;-48
2021/05/06 10:54:37;;;;;;;6.30;1.77;;;13.00;99.80;;;;;;5074873;28;20193;-47
2021/05/06 10:57:26;;;;;;;3.17;1.57;;;13.30;99.90;;;;;;5075280;28;20203;-45
2021/05/06 10:59:52;;;;;;;3.77;1.60;;;13.60;99.70;;;;;;5059947;28;20228;-50
2021/05/06 11:02:33;;;;;;;2.80;1.50;;;13.70;98.90;;;;;;5058938;28;20182;-44
2021/05/06 11:05:15;;;;;;;2.40;1.77;;;13.80;99.30;;;;;;5061783;28;20182;-49
2021/05/06 11:07:41;;;;;;;2.80;1.90;;;13.70;99.90;;;;;;5056394;28;20782;-47
2021/05/06 11:10:07;;;;;;;4.93;1.80;;;13.80;97.00;;;;;;5074218;28;20172;-49
2021/05/06 11:12:34;;;;;;;2.53;1.73;;;13.70;99.10;;;;;;5074377;28;20258;-44
2021/05/06 11:15:00;;;;;;;1.90;1.53;;;13.50;99.20;;;;;;5074073;28;20636;-47
2021/05/06 11:17:34;;;;;;;3.90;1.90;;;13.50;99.90;;;;;;5074268;28;20212;-49
2021/05/06 11:20:09;;;;;;;2.93;2.00;;;13.50;99.10;;;;;;5061532;28;20265;-47
2021/05/06 11:22:49;;;;;;;3.33;2.10;;;13.60;99.80;;;;;;5053694;28;20497;-48
2021/05/06 11:25:27;;;;;;;4.00;1.97;;;13.40;98.50;;;;;;5054679;28;20165;-44
2021/05/06 11:27:54;;;;;;;4.23;2.00;;;13.30;98.90;;;;;;5054260;28;20198;-44
2021/05/06 11:30:32;;;;;;;5.10;2.37;;;13.20;97.40;;;;;;5054201;28;20165;-42
2021/05/06 11:33:35;;;;;;;2.77;1.97;;;13.10;99.10;;;;;;5053980;28;20193;-45
2021/05/06 11:36:10;;;;;;;4.97;2.00;;;13.00;98.00;;;;;;5053896;28;20572;-45
2021/05/06 11:38:39;;;;;;;5.40;2.00;;;13.00;99.90;;;;;;5054176;28;20187;-45
2021/05/06 11:41:13;;;;;;;3.03;2.00;;;13.00;99.90;;;;;;5054004;28;20189;-45
2021/05/06 11:43:50;;;;;;;5.60;2.00;;;12.90;98.90;;;;;;5053947;28;20220;-45
2021/05/06 11:46:20;;;;;;;5.50;2.23;;;12.80;99.90;;;;;;5054127;28;20233;-45
2021/05/06 11:48:47;;;;;;;2.87;1.63;;;12.90;99.90;;;;;;5054045;28;20262;-45
2021/05/06 11:51:26;;;;;;;3.90;2.00;;;12.90;99.90;;;;;;5053552;28;20276;-46
2021/05/06 11:54:18;;;;;;;6.03;2.40;;;13.00;99.90;;;;;;5053736;28;20182;-46
2021/05/06 11:56:49;;;;;;;2.87;2.10;;;12.90;99.90;;;;;;5068325;28;20598;-47
2021/05/06 11:59:17;;;;;;;3.17;1.80;;;12.90;99.90;;;;;;5073727;28;20151;-47
2021/05/06 12:01:43;;;;;;;5.77;2.17;;;13.00;99.90;;;;;;5073578;28;20179;-46
2021/05/06 12:04:27;;;;;;;4.77;2.10;;;13.00;99.90;;;;;;5074102;28;20171;-46
2021/05/06 12:06:53;;;;;;;3.13;2.10;;;13.00;99.90;;;;;;5073647;28;20689;-43
2021/05/06 12:09:36;;;;;;;4.13;1.90;;;13.00;99.90;;;;;;5073965;28;20178;-45
2021/05/06 12:12:02;;;;;;;3.30;2.10;;;13.10;99.80;;;;;;5073479;28;20177;-47
2021/05/06 12:14:36;;;;;;;5.17;2.23;;;13.10;99.90;;;;;;5073099;28;20168;-45
2021/05/06 12:17:02;;;;;;;3.70;2.10;;;13.20;99.90;;;;;;5073461;28;20215;-46
2021/05/06 12:19:28;;;;;;;3.57;2.20;;;13.20;99.90;;;;;;5073584;28;20165;-43
2021/05/06 12:21:57;;;;;;;3.60;2.20;;;13.20;99.90;;;;;;5073287;28;20241;-44
2021/05/06 12:24:32;;;;;;;2.90;1.90;;;13.20;99.90;;;;;;5073434;28;20608;-42
2021/05/06 12:26:59;;;;;;;3.27;1.90;;;13.20;99.40;;;;;;5073601;28;20196;-48
2021/05/06 12:29:29;;;;;;;5.27;2.20;;;13.20;99.70;;;;;;5073861;28;20228;-45
2021/05/06 12:31:55;;;;;;;4.93;2.30;;;13.20;99.90;;;;;;5073884;28;20489;-45
2021/05/06 12:34:23;;;;;;;4.43;2.33;;;13.20;99.90;;;;;;5073448;28;20694;-46
2021/05/06 12:36:59;;;;;;;4.47;2.47;;;13.10;99.90;;;;;;5073536;28;20289;-46
2021/05/06 12:39:27;;;;;;;3.77;2.40;;;13.20;99.90;;;;;;5073803;28;20524;-49
2021/05/06 12:41:54;;;;;;;3.60;1.93;;;13.30;99.90;;;;;;5073327;28;20174;-46
2021/05/06 12:44:40;;;;;;;4.97;2.27;;;13.30;99.90;;;;;;5073743;28;20281;-47
2021/05/06 12:47:22;;;;;;;4.90;2.13;;;13.30;99.90;;;;;;5073632;28;20225;-46
2021/05/06 12:50:06;;;;;;;4.40;2.23;;;13.20;99.90;;;;;;5073628;28;20173;-46
2021/05/06 12:52:37;;;;;;;4.50;2.07;;;13.10;99.90;;;;;;5073316;28;20174;-44
2021/05/06 12:55:25;;;;;;;3.67;2.10;;;12.80;99.90;;;;;;5072071;28;20569;-49
2021/05/06 12:58:19;;;;;;;3.27;2.13;;;12.70;99.90;;;;;;5053414;28;20703;-45
2021/05/06 13:00:44;;;;;;;5.07;2.20;;;12.70;99.90;;;;;;5053079;28;20179;-45
2021/05/06 13:03:13;;;;;;;4.93;2.60;;;12.70;99.90;;;;;;5052780;28;20172;-44
2021/05/06 13:05:43;;;;;;;4.50;2.37;;;12.70;99.90;;;;;;5052983;28;20199;-45
2021/05/06 13:08:09;;;;;;;3.87;2.07;;;12.70;99.90;;;;;;5051741;28;20558;-46
2021/05/06 13:10:42;;;;;;;5.03;1.90;;;12.70;99.90;;;;;;5052915;28;20171;-46
2021/05/06 13:13:10;;;;;;;3.43;2.10;;;12.70;99.90;;;;;;5053151;28;20175;-43
2021/05/06 13:15:53;;;;;;;3.53;2.10;;;12.80;99.90;;;;;;5053523;28;20206;-47
2021/05/06 13:18:20;;;;;;;5.30;2.40;;;12.90;99.90;;;;;;5070715;28;20231;-46
2021/05/06 13:20:48;;;;;;;3.40;2.20;;;12.90;99.90;;;;;;5073271;28;20201;-46
2021/05/06 13:23:15;;;;;;;6.10;2.30;;;13.10;99.90;;;;;;5073574;28;20188;-42
2021/05/06 13:25:55;;;;;;;4.77;1.93;;;13.10;99.90;;;;;;5074802;28;20197;-43
2021/05/06 13:28:33;;;;;;;2.97;2.30;;;13.00;99.90;;;;;;5076990;28;20179;-47
2021/05/06 13:31:22;;;;;;;5.53;2.00;;;13.00;99.90;;;;;;5076792;28;20202;-51
2021/05/06 13:34:13;;;;;;;5.53;2.60;;;13.10;99.90;;;;;;5076512;28;20174;-45
2021/05/06 13:36:39;;;;;;;2.77;1.83;;;13.20;99.90;;;;;;5076654;28;20208;-46
2021/05/06 13:39:10;;;;;;;4.07;2.10;;;13.20;99.90;;;;;;5076543;28;20223;-45
2021/05/06 13:41:45;;;;;;;4.17;1.90;;;13.20;99.90;;;;;;5076047;28;20659;-48
2021/05/06 13:44:15;;;;;;;2.40;1.73;;;13.20;99.90;;;;;;5077133;28;20158;-46
2021/05/06 13:46:55;;;;;;;3.63;2.17;;;13.20;99.90;;;;;;5076377;28;20203;-47
2021/05/06 13:49:29;;;;;;;5.63;2.43;;;13.20;99.90;;;;;;5076123;28;20607;-44
2021/05/06 13:51:57;;;;;;;2.63;2.03;;;13.10;99.90;;;;;;5075897;28;20172;-43
2021/05/06 13:54:23;;;;;;;4.60;2.10;;;13.00;99.90;;;;;;5076292;28;20171;-46
2021/05/06 13:56:49;;;;;;;3.43;2.10;;;13.00;99.90;;;;;;5076409;28;20210;-43
2021/05/06 13:59:15;;;;;;;4.23;1.90;;;13.00;99.90;;;;;;5075905;28;20573;-46
2021/05/06 14:01:41;;;;;;;4.10;2.03;;;13.10;99.90;;;;;;5076055;28;20220;-46
2021/05/06 14:04:07;;;;;;;3.33;2.20;;;13.10;99.90;;;;;;5075968;28;20175;-47
2021/05/06 14:06:34;;;;;;;4.10;2.40;;;13.20;99.90;;;;;;5076352;28;20204;-46
2021/05/06 14:09:00;;;;;;;3.87;2.10;;;13.20;99.90;;;;;;5075924;28;20182;-46
2021/05/06 14:11:26;;;;;;;2.53;1.97;;;13.10;99.90;;;;;;5075603;28;20174;-42
2021/05/06 14:13:54;;;;;;;3.67;2.10;;;12.90;99.90;;;;;;5075877;28;20204;-47
2021/05/06 14:16:20;;;;;;;3.37;2.20;;;12.90;99.90;;;;;;5075649;28;20206;-44
2021/05/06 14:18:46;;;;;;;3.40;2.20;;;12.90;99.90;;;;;;5075664;28;20171;-47
2021/05/06 14:21:14;;;;;;;4.07;2.20;;;12.80;99.90;;;;;;5075352;28;20182;-46
2021/05/06 14:23:44;;;;;;;2.17;1.80;;;12.80;99.90;;;;;;5075603;28;20516;-46
2021/05/06 14:26:10;;;;;;;3.30;2.10;;;12.90;99.90;;;;;;5075084;28;20570;-46
2021/05/06 14:28:37;;;;;;;2.83;1.83;;;12.90;99.90;;;;;;5075686;28;20191;-46
2021/05/06 14:31:02;;;;;;;3.13;2.27;;;13.00;99.90;;;;;;5075510;28;20267;-44
2021/05/06 14:33:28;;;;;;;3.77;2.30;;;12.90;99.90;;;;;;5075919;28;20175;-45
2021/05/06 14:35:53;;;;;;;3.87;2.17;;;13.00;99.90;;;;;;5075460;28;20207;-46
2021/05/06 14:38:19;;;;;;;4.73;2.30;;;13.00;99.90;;;;;;5074435;28;20195;-46
2021/05/06 14:40:45;;;;;;;3.33;2.00;;;12.90;99.90;;;;;;5074996;28;20167;-46
2021/05/06 14:43:10;;;;;;;4.77;2.23;;;13.00;99.90;;;;;;5074945;28;20202;-50
2021/05/06 14:45:36;;;;;;;2.70;2.10;;;13.10;99.90;;;;;;5075119;28;20185;-44
2021/05/06 14:48:03;;;;;;;3.23;1.93;;;13.10;99.90;;;;;;5075586;28;20175;-43
2021/05/06 14:50:30;;;;;;;3.63;2.00;;;13.10;99.90;;;;;;5075318;28;20653;-43
2021/05/06 14:52:56;;;;;;;2.80;1.93;;;13.20;99.90;;;;;;5074891;28;20630;-47
2021/05/06 14:55:23;;;;;;;3.93;2.10;;;13.40;99.90;;;;;;5074870;28;20170;-50
2021/05/06 14:57:50;;;;;;;2.53;1.90;;;13.40;99.90;;;;;;5074858;28;20187;-48
2021/05/06 15:00:18;;;;;;;3.70;2.30;;;13.50;99.90;;;;;;5075131;28;20172;-50
2021/05/06 15:02:43;;;;;;;2.60;1.80;;;13.50;99.90;;;;;;5074453;28;20627;-48
2021/05/06 15:05:10;;;;;;;2.97;1.67;;;13.50;99.90;;;;;;5074714;28;20179;-43
2021/05/06 15:07:35;;;;;;;3.40;1.87;;;13.30;99.90;;;;;;5075048;28;20345;-43
2021/05/06 15:10:03;;;;;;;3.37;1.80;;;13.10;99.90;;;;;;5074940;28;20556;-44
2021/05/06 15:12:29;;;;;;;2.13;1.60;;;13.00;99.90;;;;;;5074633;28;20247;-43
2021/05/06 15:14:55;;;;;;;2.93;2.00;;;12.90;99.90;;;;;;5074329;28;20174;-45
2021/05/06 15:17:20;;;;;;;2.60;2.20;;;12.90;99.90;;;;;;5074769;28;20678;-45
2021/05/06 15:19:46;;;;;;;3.37;1.60;;;13.10;99.90;;;;;;5074887;28;20545;-43
2021/05/06 15:22:12;;;;;;;3.20;1.97;;;13.00;99.90;;;;;;5074116;28;20189;-47
2021/05/06 15:24:37;;;;;;;3.23;2.13;;;13.10;99.90;;;;;;5074632;28;20581;-44
2021/05/06 15:27:03;;;;;;;2.87;1.80;;;13.30;99.90;;;;;;5074280;28;20239;-47
2021/05/06 15:29:28;;;;;;;5.53;1.50;;;13.70;99.90;;;;;;5074207;28;20183;-45
2021/05/06 15:31:54;;;;;;;1.90;1.40;;;13.80;99.90;;;;;;5074095;28;20174;-46
2021/05/06 15:34:20;;;;;;;3.77;1.93;;;13.90;99.90;;;;;;5074542;28;20235;-47
2021/05/06 15:36:46;;;;;;;1.40;1.20;;;14.10;99.90;;;;;;5074087;28;20202;-47
2021/05/06 15:39:12;;;;;;;2.13;1.70;;;14.00;99.90;;;;;;5073803;28;20176;-43
2021/05/06 15:41:38;;;;;;;2.37;1.73;;;14.20;99.90;;;;;;5074023;28;20613;-47
2021/05/06 15:44:04;;;;;;;3.40;2.07;;;14.20;99.90;;;;;;5074263;28;20174;-45
2021/05/06 15:46:33;;;;;;;2.37;1.90;;;14.20;99.90;;;;;;5073945;28;20279;-45
2021/05/06 15:49:00;;;;;;;3.27;1.97;;;14.20;99.90;;;;;;5073281;28;20175;-44
2021/05/06 15:51:26;;;;;;;2.90;1.90;;;14.10;99.90;;;;;;5054897;28;20530;-46
2021/05/06 15:53:51;;;;;;;1.90;1.50;;;14.00;99.90;;;;;;5074269;28;20660;-45
2021/05/06 15:56:17;;;;;;;3.20;2.20;;;14.00;99.90;;;;;;5073222;28;20677;-43
2021/05/06 15:58:43;;;;;;;2.47;1.90;;;14.00;99.90;;;;;;5073740;28;20176;-51
2021/05/06 16:01:09;;;;;;;3.30;1.70;;;13.80;99.90;;;;;;5073855;28;20299;-47
2021/05/06 16:03:44;;;;;;;2.20;1.73;;;13.90;99.90;;;;;;5073848;28;20172;-43